createdAt,value
2022-08-21T00:02:26.491Z,17.40
2022-08-21T00:04:57.441Z,17.20
2022-08-21T00:07:28.251Z,17.20
2022-08-21T00:09:57.256Z,17.20
2022-08-21T00:12:25.958Z,17.20
2022-08-21T00:14:57.039Z,17.20
2022-08-21T00:17:26.925Z,17.20
2022-08-21T00:19:55.539Z,17.10
2022-08-21T00:22:24.193Z,17.10
2022-08-21T00:24:54.113Z,17.00
2022-08-21T00:27:23.150Z,17.00
2022-08-21T00:29:51.837Z,17.10
2022-08-21T00:32:24.237Z,17.10
2022-08-21T00:34:53.295Z,17.10
2022-08-21T00:37:22.991Z,17.00
2022-08-21T00:39:54.413Z,17.00
2022-08-21T00:42:23.462Z,17.00
2022-08-21T00:44:53.169Z,16.90
2022-08-21T00:47:22.190Z,16.80
2022-08-21T00:49:51.044Z,16.70
2022-08-21T00:52:24.200Z,16.70
2022-08-21T00:54:57.759Z,16.70
2022-08-21T00:57:32.493Z,16.70
2022-08-21T01:00:10.633Z,16.60
2022-08-21T01:02:39.599Z,16.60
2022-08-21T01:05:09.487Z,16.50
2022-08-21T01:07:38.893Z,16.50
2022-08-21T01:10:20.619Z,16.50
2022-08-21T01:12:56.124Z,16.50
2022-08-21T01:15:29.594Z,16.60
2022-08-21T01:17:58.308Z,16.60
2022-08-21T01:20:32.816Z,16.60
2022-08-21T01:23:03.883Z,16.50
2022-08-21T01:25:33.682Z,16.50
2022-08-21T01:28:11.499Z,16.40
2022-08-21T01:30:42.912Z,16.30
2022-08-21T01:33:12.120Z,16.20
2022-08-21T01:35:41.022Z,16.20
2022-08-21T01:38:10.987Z,16.10
2022-08-21T01:40:39.648Z,16.00
2022-08-21T01:43:08.222Z,15.90
2022-08-21T01:45:36.897Z,15.90
2022-08-21T01:48:06.406Z,15.70
2022-08-21T01:50:35.078Z,15.70
2022-08-21T01:53:03.686Z,15.60
2022-08-21T01:55:33.728Z,15.60
2022-08-21T01:58:02.927Z,15.50
2022-08-21T02:00:33.219Z,15.50
2022-08-21T02:03:01.761Z,15.50
2022-08-21T02:05:30.279Z,15.50
2022-08-21T02:07:59.117Z,15.60
2022-08-21T02:10:30.832Z,15.50
2022-08-21T02:13:02.666Z,15.50
2022-08-21T02:15:32.374Z,15.50
2022-08-21T02:18:10.520Z,15.40
2022-08-21T02:20:44.362Z,15.40
2022-08-21T02:23:15.052Z,15.40
2022-08-21T02:25:44.394Z,15.30
2022-08-21T02:28:16.747Z,15.30
2022-08-21T02:30:49.679Z,15.40
2022-08-21T02:33:19.017Z,15.40
2022-08-21T02:35:50.402Z,15.40
2022-08-21T02:38:22.870Z,15.30
2022-08-21T02:40:57.136Z,15.30
2022-08-21T02:43:29.576Z,15.30
2022-08-21T02:46:00.140Z,15.30
2022-08-21T02:48:32.109Z,15.40
2022-08-21T02:51:05.509Z,15.30
2022-08-21T02:53:35.313Z,15.30
2022-08-21T02:56:07.493Z,15.30
2022-08-21T02:58:44.067Z,15.30
2022-08-21T03:01:14.085Z,15.20
2022-08-21T03:03:45.916Z,15.30
2022-08-21T03:06:18.450Z,15.20
2022-08-21T03:08:47.858Z,15.30
2022-08-21T03:11:17.622Z,15.30
2022-08-21T03:13:47.592Z,15.30
2022-08-21T03:16:16.315Z,15.30
2022-08-21T03:18:44.861Z,15.30
2022-08-21T03:21:14.259Z,15.10
2022-08-21T03:23:44.004Z,15.00
2022-08-21T03:26:13.467Z,14.90
2022-08-21T03:28:42.624Z,15.00
2022-08-21T03:31:12.504Z,15.00
2022-08-21T03:33:41.207Z,15.00
2022-08-21T03:36:11.525Z,15.10
2022-08-21T03:38:40.730Z,15.00
2022-08-21T03:41:10.153Z,15.10
2022-08-21T03:43:39.527Z,15.10
2022-08-21T03:46:09.262Z,15.10
2022-08-21T03:48:39.854Z,15.00
2022-08-21T03:51:09.166Z,15.00
2022-08-21T03:53:38.484Z,15.00
2022-08-21T03:56:08.036Z,15.00
2022-08-21T03:58:36.644Z,15.10
2022-08-21T04:01:08.222Z,15.10
2022-08-21T04:03:39.738Z,15.10
2022-08-21T04:06:09.582Z,15.10
2022-08-21T04:08:38.297Z,15.10
2022-08-21T04:11:08.596Z,15.10
2022-08-21T04:13:43.236Z,15.20
2022-08-21T04:16:14.205Z,15.20
2022-08-21T04:18:44.460Z,15.20
2022-08-21T04:21:13.998Z,15.20
2022-08-21T04:23:42.656Z,15.20
2022-08-21T04:26:12.723Z,15.20
2022-08-21T04:28:41.303Z,15.20
2022-08-21T04:31:11.186Z,15.20
2022-08-21T04:33:39.727Z,15.30
2022-08-21T04:36:10.793Z,15.30
2022-08-21T04:38:44.607Z,15.30
2022-08-21T04:41:13.560Z,15.30
2022-08-21T04:43:42.377Z,15.30
2022-08-21T04:46:13.486Z,15.30
2022-08-21T04:48:42.703Z,15.30
2022-08-21T04:51:17.518Z,15.30
2022-08-21T04:53:50.478Z,15.40
2022-08-21T04:56:27.242Z,15.40
2022-08-21T04:59:01.029Z,15.40
2022-08-21T05:01:36.117Z,15.30
2022-08-21T05:04:07.572Z,15.30
2022-08-21T05:06:42.130Z,15.40
2022-08-21T05:09:14.877Z,15.40
2022-08-21T05:11:44.183Z,15.40
2022-08-21T05:14:13.631Z,15.40
2022-08-21T05:16:42.831Z,15.50
2022-08-21T05:19:12.231Z,15.50
2022-08-21T05:21:48.438Z,15.40
2022-08-21T05:24:18.829Z,15.50
2022-08-21T05:26:48.088Z,15.50
2022-08-21T05:29:19.027Z,15.50
2022-08-21T05:31:49.286Z,15.50
2022-08-21T05:34:22.963Z,15.60
2022-08-21T05:36:53.178Z,15.70
2022-08-21T05:39:22.006Z,15.80
2022-08-21T05:41:50.533Z,15.90
2022-08-21T05:44:19.033Z,16.00
2022-08-21T05:46:49.146Z,16.10
2022-08-21T05:49:17.788Z,16.10
2022-08-21T05:51:46.269Z,16.20
2022-08-21T05:54:16.559Z,16.30
2022-08-21T05:56:46.664Z,16.40
2022-08-21T05:59:16.694Z,16.50
2022-08-21T06:01:46.669Z,16.60
2022-08-21T06:04:20.531Z,16.60
2022-08-21T06:06:49.932Z,16.70
2022-08-21T06:09:20.143Z,16.90
2022-08-21T06:11:48.648Z,17.00
2022-08-21T06:14:18.052Z,17.20
2022-08-21T06:16:46.514Z,17.30
2022-08-21T06:19:15.578Z,17.50
2022-08-21T06:21:44.208Z,17.60
2022-08-21T06:24:13.162Z,17.80
2022-08-21T06:26:43.397Z,17.90
2022-08-21T06:29:13.641Z,18.00
2022-08-21T06:31:42.773Z,18.10
2022-08-21T06:34:12.052Z,18.20
2022-08-21T06:36:40.655Z,18.40
2022-08-21T06:39:16.299Z,18.60
2022-08-21T06:41:54.575Z,18.70
2022-08-21T06:44:23.253Z,18.80
2022-08-21T06:46:51.802Z,18.90
2022-08-21T06:49:21.521Z,19.10
2022-08-21T06:51:50.376Z,19.20
2022-08-21T06:54:18.935Z,19.30
2022-08-21T06:56:47.551Z,19.50
2022-08-21T06:59:17.492Z,19.70
2022-08-21T07:01:46.650Z,19.90
2022-08-21T07:04:15.543Z,20.00
2022-08-21T07:06:44.911Z,20.20
2022-08-21T07:09:13.632Z,20.40
2022-08-21T07:11:44.189Z,20.60
2022-08-21T07:14:20.039Z,20.80
2022-08-21T07:16:49.475Z,21.00
2022-08-21T07:19:18.111Z,21.10
2022-08-21T07:21:46.626Z,21.30
2022-08-21T07:24:16.058Z,21.50
2022-08-21T07:26:44.555Z,21.70
2022-08-21T07:29:13.092Z,21.80
2022-08-21T07:31:43.014Z,22.00
2022-08-21T07:34:11.515Z,22.10
2022-08-21T07:36:40.015Z,22.30
2022-08-21T07:39:09.250Z,22.50
2022-08-21T07:41:38.664Z,22.70
2022-08-21T07:44:07.103Z,22.90
2022-08-21T07:46:35.591Z,23.00
2022-08-21T07:49:05.839Z,23.30
2022-08-21T07:51:35.623Z,23.50
2022-08-21T07:54:06.670Z,23.70
2022-08-21T07:56:35.991Z,23.80
2022-08-21T07:59:08.447Z,23.90
2022-08-21T08:01:37.062Z,23.90
2022-08-21T08:04:07.078Z,24.10
2022-08-21T08:06:36.072Z,24.20
2022-08-21T08:09:05.420Z,24.30
2022-08-21T08:11:34.107Z,24.40
2022-08-21T08:14:04.896Z,24.60
2022-08-21T08:16:33.373Z,24.60
2022-08-21T08:19:01.924Z,24.80
2022-08-21T08:21:33.687Z,25.00
2022-08-21T08:24:19.404Z,25.10
2022-08-21T08:26:53.390Z,25.20
2022-08-21T08:29:23.297Z,25.40
2022-08-21T08:31:52.019Z,25.60
2022-08-21T08:34:25.310Z,25.80
2022-08-21T08:36:58.906Z,25.80
2022-08-21T08:39:29.457Z,25.90
2022-08-21T08:42:32.744Z,26.00
2022-08-21T08:45:02.854Z,26.20
2022-08-21T08:47:34.702Z,26.30
2022-08-21T08:50:08.065Z,26.40
2022-08-21T08:52:45.309Z,26.60
2022-08-21T08:55:23.174Z,26.80
2022-08-21T08:57:57.685Z,27.00
2022-08-21T09:00:26.998Z,27.10
2022-08-21T09:03:01.167Z,27.30
2022-08-21T09:05:34.944Z,27.40
2022-08-21T09:08:33.168Z,27.70
2022-08-21T09:11:09.310Z,27.80
2022-08-21T09:13:53.181Z,28.00
2022-08-21T09:16:36.968Z,28.10
2022-08-21T09:19:28.430Z,28.20
2022-08-21T09:22:11.049Z,28.40
2022-08-21T09:24:54.288Z,28.40
2022-08-21T09:27:24.243Z,28.50
2022-08-21T09:29:58.596Z,28.50
2022-08-21T09:32:37.737Z,28.50
2022-08-21T09:35:11.907Z,28.60
2022-08-21T09:37:53.861Z,28.80
2022-08-21T09:40:34.940Z,29.00
2022-08-21T09:43:08.141Z,29.20
2022-08-21T09:45:38.043Z,29.20
2022-08-21T09:48:17.368Z,29.20
2022-08-21T09:50:48.587Z,29.20
2022-08-21T09:53:23.326Z,29.20
2022-08-21T09:56:13.561Z,29.30
2022-08-21T09:58:49.819Z,29.50
2022-08-21T10:01:21.952Z,29.60
2022-08-21T10:04:04.587Z,29.80
2022-08-21T10:06:35.866Z,29.90
2022-08-21T10:09:17.923Z,30.00
2022-08-21T10:12:01.124Z,30.20
2022-08-21T10:14:48.968Z,30.30
2022-08-21T10:17:28.735Z,30.10
2022-08-21T10:20:07.113Z,30.00
2022-08-21T10:22:47.456Z,30.10
2022-08-21T10:25:25.397Z,30.10
2022-08-21T10:28:13.754Z,30.00
2022-08-21T10:30:54.386Z,30.10
2022-08-21T10:33:42.437Z,30.30
2022-08-21T10:36:21.354Z,30.40
2022-08-21T10:39:25.896Z,30.50
2022-08-21T10:42:28.525Z,30.50
2022-08-21T10:45:16.175Z,30.80
2022-08-21T10:47:52.956Z,31.00
2022-08-21T10:50:37.124Z,31.20
2022-08-21T10:53:23.310Z,31.50
2022-08-21T10:56:01.649Z,31.60
2022-08-21T10:58:35.898Z,31.80
2022-08-21T11:01:16.512Z,31.80
2022-08-21T11:03:48.306Z,31.90
2022-08-21T11:06:22.896Z,32.00
2022-08-21T11:09:00.727Z,32.00
2022-08-21T11:11:36.122Z,32.10
2022-08-21T11:14:16.396Z,32.20
2022-08-21T11:16:58.035Z,32.10
2022-08-21T11:19:35.508Z,32.00
2022-08-21T11:22:16.684Z,32.10
2022-08-21T11:24:52.761Z,32.20
2022-08-21T11:27:32.375Z,32.20
2022-08-21T11:30:03.009Z,32.30
2022-08-21T11:33:18.082Z,32.50
2022-08-21T11:35:56.419Z,32.30
2022-08-21T11:38:36.871Z,32.40
2022-08-21T11:41:26.535Z,32.70
2022-08-21T11:44:14.002Z,32.80
2022-08-21T11:46:54.664Z,32.80
2022-08-21T11:50:01.609Z,32.90
2022-08-21T11:52:40.250Z,32.80
2022-08-21T11:55:17.613Z,33.00
2022-08-21T11:58:00.722Z,33.20
2022-08-21T12:00:35.525Z,33.30
2022-08-21T12:03:13.273Z,33.20
2022-08-21T12:05:54.766Z,33.40
2022-08-21T12:08:32.700Z,33.80
2022-08-21T12:11:10.274Z,34.10
2022-08-21T12:13:53.960Z,34.30
2022-08-21T12:16:34.340Z,34.00
2022-08-21T12:19:08.529Z,33.80
2022-08-21T12:21:55.796Z,33.70
2022-08-21T12:24:40.241Z,34.00
2022-08-21T12:27:30.517Z,34.30
2022-08-21T12:30:04.062Z,34.70
2022-08-21T12:32:46.481Z,35.00
2022-08-21T12:35:24.324Z,35.20
2022-08-21T12:38:09.355Z,35.20
2022-08-21T12:40:44.786Z,35.20
2022-08-21T12:43:21.952Z,35.20
2022-08-21T12:45:53.451Z,35.20
2022-08-21T12:48:30.791Z,35.30
2022-08-21T12:51:11.824Z,35.40
2022-08-21T12:53:49.640Z,35.40
2022-08-21T12:56:20.870Z,35.70
2022-08-21T12:58:52.912Z,35.70
2022-08-21T13:01:29.896Z,35.40
2022-08-21T13:04:06.033Z,35.20
2022-08-21T13:06:42.986Z,35.00
2022-08-21T13:09:18.787Z,35.00
2022-08-21T13:11:50.994Z,34.50
2022-08-21T13:14:32.541Z,34.10
2022-08-21T13:17:05.273Z,34.20
2022-08-21T13:19:35.430Z,34.70
2022-08-21T13:22:15.951Z,35.00
2022-08-21T13:24:55.614Z,35.20
2022-08-21T13:27:28.916Z,34.50
2022-08-21T13:30:12.545Z,33.80
2022-08-21T13:32:46.350Z,32.90
2022-08-21T13:35:21.103Z,32.40
2022-08-21T13:37:52.917Z,32.10
2022-08-21T13:40:28.988Z,31.70
2022-08-21T13:42:59.056Z,31.40
2022-08-21T13:45:33.110Z,30.90
2022-08-21T13:48:06.136Z,30.50
2022-08-21T13:50:45.918Z,30.20
2022-08-21T13:53:25.634Z,30.50
2022-08-21T13:56:00.414Z,30.90
2022-08-21T13:58:32.987Z,31.40
2022-08-21T14:01:06.465Z,31.70
2022-08-21T14:03:40.530Z,32.30
2022-08-21T14:06:16.952Z,33.10
2022-08-21T14:08:53.399Z,33.60
2022-08-21T14:11:24.054Z,34.20
2022-08-21T14:14:00.188Z,34.80
2022-08-21T14:16:42.468Z,35.40
2022-08-21T14:19:21.372Z,35.70
2022-08-21T14:21:50.248Z,36.20
2022-08-21T14:24:31.840Z,36.50
2022-08-21T14:27:08.922Z,35.90
2022-08-21T14:29:42.013Z,35.30
2022-08-21T14:32:25.138Z,34.50
2022-08-21T14:34:54.788Z,33.80
2022-08-21T14:37:23.812Z,34.00
2022-08-21T14:39:52.404Z,34.80
2022-08-21T14:42:22.814Z,35.40
2022-08-21T14:44:51.454Z,35.80
2022-08-21T14:47:19.864Z,36.60
2022-08-21T14:49:48.599Z,37.40
2022-08-21T14:52:17.029Z,37.80
2022-08-21T14:54:46.022Z,38.10
2022-08-21T14:57:15.726Z,38.20
2022-08-21T14:59:45.570Z,38.30
2022-08-21T15:02:14.234Z,38.20
2022-08-21T15:04:43.562Z,38.10
2022-08-21T15:07:12.069Z,37.50
2022-08-21T15:09:40.522Z,37.10
2022-08-21T15:12:11.301Z,36.90
2022-08-21T15:14:42.823Z,37.00
2022-08-21T15:17:13.393Z,37.10
2022-08-21T15:19:42.228Z,37.20
2022-08-21T15:22:15.495Z,37.30
2022-08-21T15:24:47.770Z,37.50
2022-08-21T15:27:20.679Z,37.40
2022-08-21T15:29:49.275Z,37.50
2022-08-21T15:32:23.786Z,37.30
2022-08-21T15:34:52.992Z,37.20
2022-08-21T15:37:21.911Z,36.70
2022-08-21T15:39:54.774Z,36.20
2022-08-21T15:42:24.982Z,35.80
2022-08-21T15:44:56.090Z,35.20
2022-08-21T15:47:31.536Z,34.80
2022-08-21T15:50:00.001Z,34.70
2022-08-21T15:52:28.996Z,34.60
2022-08-21T15:54:57.597Z,34.60
2022-08-21T15:57:27.602Z,34.90
2022-08-21T16:00:00.788Z,35.00
2022-08-21T16:02:34.035Z,35.30
2022-08-21T16:05:02.509Z,35.40
2022-08-21T16:07:31.172Z,35.60
2022-08-21T16:09:59.615Z,35.80
2022-08-21T16:12:32.925Z,35.80
2022-08-21T16:15:04.418Z,35.70
2022-08-21T16:17:37.584Z,35.70
2022-08-21T16:20:11.298Z,35.50
2022-08-21T16:22:55.038Z,35.30
2022-08-21T16:25:23.868Z,35.10
2022-08-21T16:27:59.289Z,34.80
2022-08-21T16:30:29.261Z,34.60
2022-08-21T16:33:00.825Z,34.40
2022-08-21T16:35:29.749Z,34.00
2022-08-21T16:37:58.266Z,33.80
2022-08-21T16:40:27.276Z,33.90
2022-08-21T16:42:56.348Z,33.90
2022-08-21T16:45:24.822Z,34.10
2022-08-21T16:47:53.257Z,34.00
2022-08-21T16:50:25.836Z,33.80
2022-08-21T16:52:54.558Z,33.80
2022-08-21T16:55:23.384Z,33.60
2022-08-21T16:57:52.001Z,33.50
2022-08-21T17:00:20.688Z,33.40
2022-08-21T17:02:54.512Z,33.30
2022-08-21T17:05:24.378Z,33.40
2022-08-21T17:07:52.796Z,33.20
2022-08-21T17:10:21.664Z,33.20
2022-08-21T17:12:58.113Z,32.90
2022-08-21T17:15:34.289Z,32.70
2022-08-21T17:18:04.463Z,32.30
2022-08-21T17:20:34.888Z,32.00
2022-08-21T17:23:03.492Z,31.80
2022-08-21T17:25:32.627Z,31.40
2022-08-21T17:28:01.424Z,31.10
2022-08-21T17:30:29.951Z,30.50
2022-08-21T17:33:01.310Z,29.90
2022-08-21T17:35:29.947Z,29.30
2022-08-21T17:37:59.756Z,28.60
2022-08-21T17:40:28.211Z,28.10
2022-08-21T17:42:57.977Z,27.50
2022-08-21T17:45:27.189Z,27.00
2022-08-21T17:47:55.580Z,26.50
2022-08-21T17:50:25.780Z,26.10
2022-08-21T17:52:54.500Z,25.80
2022-08-21T17:55:24.771Z,25.40
2022-08-21T17:57:55.356Z,25.00
2022-08-21T18:00:26.193Z,24.90
2022-08-21T18:03:03.882Z,24.70
2022-08-21T18:05:32.847Z,24.50
2022-08-21T18:08:01.290Z,24.30
2022-08-21T18:10:31.639Z,24.00
2022-08-21T18:13:04.040Z,23.80
2022-08-21T18:15:33.033Z,23.80
2022-08-21T18:18:02.101Z,23.60
2022-08-21T18:20:30.638Z,23.40
2022-08-21T18:23:00.362Z,23.30
2022-08-21T18:25:30.936Z,23.20
2022-08-21T18:28:01.551Z,22.90
2022-08-21T18:30:30.263Z,22.70
2022-08-21T18:32:58.957Z,22.60
2022-08-21T18:35:28.192Z,22.60
2022-08-21T18:38:01.050Z,22.40
2022-08-21T18:40:34.449Z,22.20
2022-08-21T18:43:04.584Z,22.00
2022-08-21T18:45:37.583Z,21.90
2022-08-21T18:48:10.740Z,21.80
2022-08-21T18:50:43.078Z,21.70
2022-08-21T18:53:27.315Z,21.60
2022-08-21T18:56:05.204Z,21.70
2022-08-21T18:58:35.325Z,21.60
2022-08-21T19:01:03.784Z,21.50
2022-08-21T19:03:34.332Z,21.40
2022-08-21T19:06:02.908Z,21.20
2022-08-21T19:08:31.341Z,21.00
2022-08-21T19:11:02.734Z,20.80
2022-08-21T19:13:33.886Z,20.70
2022-08-21T19:16:05.520Z,20.70
2022-08-21T19:18:42.276Z,20.50
2022-08-21T19:21:11.222Z,20.50
2022-08-21T19:23:40.344Z,20.40
2022-08-21T19:26:13.114Z,20.30
2022-08-21T19:28:46.066Z,20.20
2022-08-21T19:31:19.742Z,20.10
2022-08-21T19:34:01.850Z,20.00
2022-08-21T19:36:30.581Z,20.00
2022-08-21T19:39:08.167Z,20.00
2022-08-21T19:41:45.377Z,19.90
2022-08-21T19:44:20.474Z,19.80
2022-08-21T19:46:52.626Z,19.70
2022-08-21T19:49:26.898Z,19.70
2022-08-21T19:51:55.626Z,19.60
2022-08-21T19:54:28.007Z,19.60
2022-08-21T19:57:03.867Z,19.50
2022-08-21T19:59:34.299Z,19.30
2022-08-21T20:02:02.949Z,19.20
2022-08-21T20:04:31.642Z,19.20
2022-08-21T20:07:00.436Z,19.10
2022-08-21T20:09:29.392Z,19.10
2022-08-21T20:12:10.507Z,19.10
2022-08-21T20:14:45.957Z,19.00
2022-08-21T20:17:18.629Z,18.90
2022-08-21T20:19:54.407Z,18.70
2022-08-21T20:22:38.461Z,18.90
2022-08-21T20:25:08.194Z,18.50
2022-08-21T20:27:41.106Z,18.40
2022-08-21T20:30:11.818Z,18.30
2022-08-21T20:32:40.931Z,18.30
2022-08-21T20:35:12.334Z,18.20
2022-08-21T20:37:43.453Z,18.10
2022-08-21T20:40:16.241Z,18.10
2022-08-21T20:42:55.721Z,18.10
2022-08-21T20:45:29.088Z,18.10
2022-08-21T20:48:03.966Z,18.10
2022-08-21T20:50:38.554Z,18.00
2022-08-21T20:53:14.511Z,18.00
2022-08-21T20:55:49.362Z,18.10
2022-08-21T20:58:32.309Z,18.10
2022-08-21T21:01:06.285Z,18.10
2022-08-21T21:03:42.266Z,18.00
2022-08-21T21:06:18.767Z,17.90
2022-08-21T21:08:53.575Z,17.80
2022-08-21T21:14:25.216Z,17.60
2022-08-21T21:16:59.660Z,17.60
2022-08-21T21:19:38.255Z,17.60
2022-08-21T21:22:16.450Z,17.60
2022-08-21T21:24:57.241Z,17.60
2022-08-21T21:27:36.273Z,17.60
2022-08-21T21:30:12.370Z,17.50
2022-08-21T21:33:00.692Z,17.40
2022-08-21T21:35:38.705Z,17.40
2022-08-21T21:38:17.870Z,17.40
2022-08-21T21:41:01.459Z,17.40
2022-08-21T21:43:58.020Z,17.40
2022-08-21T21:50:04.724Z,17.30
2022-08-21T21:53:12.455Z,17.40
2022-08-21T21:56:07.011Z,17.40
2022-08-21T21:59:17.923Z,17.40
2022-08-21T22:01:57.583Z,17.30
2022-08-21T22:04:39.352Z,17.10
2022-08-21T22:07:33.650Z,16.70
2022-08-21T22:13:26.129Z,16.70
2022-08-21T22:15:56.577Z,16.80
2022-08-21T22:18:33.875Z,16.90
2022-08-21T22:21:11.016Z,17.00
2022-08-21T22:23:49.444Z,17.00
2022-08-21T22:26:38.224Z,17.00
2022-08-21T22:29:16.132Z,17.10
2022-08-21T22:31:46.618Z,17.10
2022-08-21T22:34:20.933Z,17.10
2022-08-21T22:37:01.038Z,17.10
2022-08-21T22:39:38.989Z,17.10
2022-08-21T22:42:13.629Z,17.00
2022-08-21T22:44:53.169Z,17.00
2022-08-21T22:47:24.952Z,17.00
2022-08-21T22:50:04.344Z,17.10
2022-08-21T22:52:38.438Z,17.10
2022-08-21T22:55:25.372Z,17.00
2022-08-21T22:58:08.852Z,17.00
2022-08-21T23:00:52.358Z,16.90
2022-08-21T23:03:32.599Z,16.90
2022-08-21T23:06:12.911Z,16.90
2022-08-21T23:08:44.078Z,16.90
2022-08-21T23:11:23.395Z,16.90
2022-08-21T23:13:56.528Z,16.90
2022-08-21T23:16:48.661Z,16.90
2022-08-21T23:19:38.208Z,16.80
2022-08-21T23:22:32.518Z,16.80
2022-08-21T23:25:25.428Z,16.70
2022-08-21T23:28:05.241Z,16.70
2022-08-21T23:30:46.836Z,16.50
2022-08-21T23:33:59.992Z,16.50
2022-08-21T23:37:03.617Z,16.60
2022-08-21T23:39:54.773Z,16.60
2022-08-21T23:42:49.494Z,16.60
2022-08-21T23:45:34.552Z,16.60
2022-08-21T23:48:24.122Z,16.50
2022-08-21T23:51:04.254Z,16.50
2022-08-21T23:53:52.625Z,16.50
2022-08-21T23:56:44.751Z,16.50
2022-08-21T23:59:28.306Z,16.50
